Time;durP1;ratioP1;P1;durP2;ratioP2;P2;SDS_P1;SDS_P2;PMS_P1;PMS_P2;Temp;Humidity;BMP_temperature;BMP_pressure;BME280_temperature;BME280_humidity;BME280_pressure;Samples;Min_cycle;Max_cycle;Signal;HPM_P1;HPM_P2
2022/03/30 00:01:59;;;;;;;39.70;21.37;;;;;;;5.76;100.00;99977.36;1690868;85;21047;-62
2022/03/30 00:04:26;;;;;;;42.98;21.27;;;;;;;5.73;100.00;99978.72;1690954;84;21036;-62
2022/03/30 00:06:54;;;;;;;44.55;21.75;;;;;;;5.66;100.00;99975.54;1690076;84;21055;-62
2022/03/30 00:09:21;;;;;;;42.23;21.87;;;;;;;5.63;100.00;99973.08;1701192;84;21054;-63
2022/03/30 00:11:53;;;;;;;41.13;20.50;;;;;;;5.58;100.00;99977.51;1701062;84;21050;-62
2022/03/30 00:14:20;;;;;;;42.20;21.62;;;;;;;5.58;100.00;99975.78;1682708;85;21100;-62
2022/03/30 00:16:51;;;;;;;42.75;22.10;;;;;;;5.61;100.00;99971.01;1682429;85;21064;-62
2022/03/30 00:19:21;;;;;;;43.00;22.73;;;;;;;5.67;100.00;99968.25;1682771;85;21555;-62
2022/03/30 00:21:48;;;;;;;50.88;22.90;;;;;;;5.74;100.00;99967.19;1682829;85;21036;-62
2022/03/30 00:24:15;;;;;;;47.48;23.18;;;;;;;5.85;100.00;99958.33;1682534;85;21102;-62
2022/03/30 00:26:42;;;;;;;49.80;23.80;;;;;;;5.97;100.00;99963.88;1682738;85;21045;-63
2022/03/30 00:29:10;;;;;;;52.13;24.77;;;;;;;6.11;100.00;99965.15;1682562;85;21095;-62
2022/03/30 00:31:38;;;;;;;58.52;26.00;;;;;;;6.23;100.00;99964.72;1682611;85;21067;-62
2022/03/30 00:34:05;;;;;;;55.40;26.30;;;;;;;6.33;100.00;99970.36;1682727;85;21060;-62
2022/03/30 00:36:33;;;;;;;62.58;27.50;;;;;;;6.43;100.00;99969.14;1682604;85;21539;-62
2022/03/30 00:39:00;;;;;;;60.70;27.62;;;;;;;6.53;100.00;99965.36;1682646;85;21036;-62
2022/03/30 00:41:28;;;;;;;66.92;27.95;;;;;;;6.57;100.00;99965.64;1682551;85;21115;-62
2022/03/30 00:43:56;;;;;;;61.23;28.38;;;;;;;6.68;100.00;99958.02;1682412;85;21166;-62
2022/03/30 00:46:23;;;;;;;64.72;30.48;;;;;;;6.72;100.00;99954.00;1682735;85;21087;-62
2022/03/30 00:48:51;;;;;;;61.42;28.65;;;;;;;6.73;100.00;99945.88;1682444;85;21592;-62
2022/03/30 00:51:20;;;;;;;62.55;29.12;;;;;;;6.78;100.00;99948.66;1682698;85;21568;-62
2022/03/30 00:53:47;;;;;;;69.32;31.12;;;;;;;6.84;100.00;99936.09;1682554;85;21032;-63
2022/03/30 00:56:15;;;;;;;79.10;31.12;;;;;;;6.93;100.00;99925.94;1682532;85;21132;-62
2022/03/30 00:58:43;;;;;;;69.82;31.23;;;;;;;7.01;100.00;99935.44;1682749;85;21135;-62
2022/03/30 01:01:11;;;;;;;67.75;31.42;;;;;;;7.03;100.00;99920.85;1682446;85;21594;-62
2022/03/30 01:03:39;;;;;;;66.35;29.35;;;;;;;7.10;100.00;99924.03;1682733;85;21040;-62
2022/03/30 01:06:07;;;;;;;68.85;31.70;;;;;;;7.13;100.00;99914.94;1682522;85;21028;-62
2022/03/30 01:08:35;;;;;;;75.47;32.15;;;;;;;7.14;100.00;99914.88;1674395;85;21095;-62
2022/03/30 01:11:03;;;;;;;65.83;30.70;;;;;;;7.23;100.00;99920.08;1699636;83;21027;-62
2022/03/30 01:13:33;;;;;;;76.97;31.97;;;;;;;7.24;100.00;99912.80;1699653;84;21098;-62
2022/03/30 01:16:02;;;;;;;76.42;34.00;;;;;;;7.25;100.00;99911.89;1699846;84;21098;-62
2022/03/30 01:18:39;;;;;;;67.25;32.33;;;;;;;7.31;100.00;99910.36;1699611;84;21578;-62
2022/03/30 01:21:13;;;;;;;75.75;33.00;;;;;;;7.34;100.00;99910.67;1699880;84;21034;-63
2022/03/30 01:23:36;;;;;;;70.78;30.57;;;;;;;7.37;100.00;99910.56;1699331;84;21027;-62
2022/03/30 01:26:07;;;;;;;69.55;30.45;;;;;;;7.42;100.00;99891.99;1699517;84;21558;-63
2022/03/30 01:28:34;;;;;;;68.60;31.68;;;;;;;7.41;100.00;99877.54;1699943;84;21153;-62
2022/03/30 01:33:48;;;;;;;64.80;31.37;;;;;;;7.46;100.00;99892.70;1699672;84;21070;-62
2022/03/30 01:36:17;;;;;;;70.08;32.28;;;;;;;7.41;100.00;99890.34;1699836;84;21543;-62
2022/03/30 01:38:44;;;;;;;68.70;31.05;;;;;;;7.49;100.00;99890.03;1699621;84;21058;-63
2022/03/30 01:41:13;;;;;;;65.25;31.50;;;;;;;7.52;100.00;99893.31;1699852;84;21074;-62
2022/03/30 01:43:40;;;;;;;69.58;31.87;;;;;;;7.49;100.00;99893.87;1699580;84;21551;-62
2022/03/30 01:46:07;;;;;;;65.87;31.07;;;;;;;7.52;100.00;99908.67;1699704;84;21590;-62
2022/03/30 01:48:36;;;;;;;64.55;30.57;;;;;;;7.55;100.00;99912.83;1699878;84;21063;-62
2022/03/30 01:51:04;;;;;;;63.80;31.35;;;;;;;7.54;100.00;99921.39;1699627;84;21042;-62
2022/03/30 01:53:31;;;;;;;66.28;32.20;;;;;;;7.50;100.00;99911.75;1699983;84;21050;-62
2022/03/30 01:56:01;;;;;;;67.10;32.03;;;;;;;7.49;100.00;99903.66;1699658;84;21050;-62
2022/03/30 01:58:29;;;;;;;68.65;31.77;;;;;;;7.53;100.00;99905.66;1699636;84;21187;-62
2022/03/30 02:00:57;;;;;;;77.70;33.78;;;;;;;7.48;100.00;99903.72;1699808;84;21066;-62
2022/03/30 02:03:27;;;;;;;67.90;31.77;;;;;;;7.47;100.00;99901.62;1699548;84;21119;-62
2022/03/30 02:05:57;;;;;;;68.72;32.00;;;;;;;7.50;100.00;99912.17;1699743;84;21535;-62
2022/03/30 02:08:24;;;;;;;69.65;33.15;;;;;;;7.40;100.00;99906.16;1699565;84;21008;-62
2022/03/30 02:10:52;;;;;;;65.67;33.50;;;;;;;7.39;100.00;99889.13;1699624;84;21117;-62
2022/03/30 02:13:21;;;;;;;66.60;31.95;;;;;;;7.46;100.00;99888.87;1699913;84;21066;-62
2022/03/30 02:15:48;;;;;;;67.03;32.13;;;;;;;7.45;100.00;99900.02;1699509;84;21054;-62
2022/03/30 02:18:16;;;;;;;67.27;32.70;;;;;;;7.40;100.00;99925.37;1699888;84;21107;-62
2022/03/30 02:20:43;;;;;;;70.55;31.68;;;;;;;7.38;100.00;99925.87;1699768;84;21050;-62
2022/03/30 02:23:10;;;;;;;74.82;33.80;;;;;;;7.40;100.00;99925.37;1699754;84;21086;-62
2022/03/30 02:25:39;;;;;;;69.50;33.48;;;;;;;7.38;100.00;99907.09;1699889;84;21090;-62
2022/03/30 02:28:06;;;;;;;71.62;33.67;;;;;;;7.41;100.00;99914.22;1699732;84;21547;-62
2022/03/30 02:30:34;;;;;;;69.55;34.75;;;;;;;7.47;100.00;99918.72;1699969;84;21094;-62
2022/03/30 02:33:02;;;;;;;70.78;33.65;;;;;;;7.46;100.00;99928.56;1699727;84;21077;-62
2022/03/30 02:35:31;;;;;;;69.60;34.27;;;;;;;7.42;100.00;99934.25;1699842;84;21055;-62
2022/03/30 02:37:59;;;;;;;75.75;34.20;;;;;;;7.41;100.00;99928.75;1699821;84;21047;-62
2022/03/30 02:40:26;;;;;;;67.87;33.28;;;;;;;7.40;100.00;99926.65;1699664;84;21066;-62
2022/03/30 02:42:55;;;;;;;74.32;33.48;;;;;;;7.38;100.00;99923.31;1699948;84;21074;-61
2022/03/30 02:45:22;;;;;;;74.45;34.67;;;;;;;7.35;100.00;99927.27;1699693;83;21535;-62
2022/03/30 02:50:35;;;;;;;77.45;36.88;;;;;;;7.33;100.00;99915.43;1699764;84;21062;-61
2022/03/30 02:53:03;;;;;;;77.08;37.10;;;;;;;7.41;100.00;99924.45;1699880;84;21681;-61
2022/03/30 02:55:30;;;;;;;78.52;36.42;;;;;;;7.44;100.00;99923.52;1699974;84;21094;-61
2022/03/30 02:57:57;;;;;;;75.30;36.73;;;;;;;7.43;100.00;99925.23;1699616;83;21062;-61
2022/03/30 03:00:25;;;;;;;78.65;37.45;;;;;;;7.44;100.00;99929.92;1699690;84;21125;-61
2022/03/30 03:02:52;;;;;;;79.12;38.17;;;;;;;7.40;100.00;99929.63;1699779;84;21104;-62
2022/03/30 03:05:20;;;;;;;81.47;39.00;;;;;;;7.38;100.00;99928.44;1699675;84;21099;-62
2022/03/30 03:07:47;;;;;;;79.32;38.95;;;;;;;7.44;100.00;99940.17;1699816;83;21023;-61
2022/03/30 03:10:14;;;;;;;78.30;38.50;;;;;;;7.48;100.00;99944.70;1699726;84;21574;-62
2022/03/30 03:12:43;;;;;;;82.53;38.50;;;;;;;7.46;100.00;99941.36;1699720;84;21102;-61
2022/03/30 03:15:13;;;;;;;84.65;39.58;;;;;;;7.45;100.00;99944.38;1699897;84;21047;-62
2022/03/30 03:17:42;;;;;;;78.65;38.20;;;;;;;7.55;100.00;99948.69;1699718;84;21054;-62
2022/03/30 03:20:13;;;;;;;84.30;38.92;;;;;;;7.49;100.00;99952.78;1700227;83;21559;-61
2022/03/30 03:22:42;;;;;;;75.92;37.10;;;;;;;7.45;100.00;99939.72;1699732;84;21116;-61
2022/03/30 03:25:11;;;;;;;85.42;39.05;;;;;;;7.42;100.00;99936.38;1699886;84;21519;-61
2022/03/30 03:27:39;;;;;;;80.95;38.67;;;;;;;7.42;100.00;99932.54;1700064;84;21030;-62
2022/03/30 03:30:08;;;;;;;81.82;38.15;;;;;;;7.41;100.00;99927.02;1699709;84;21565;-62
2022/03/30 03:32:36;;;;;;;78.78;37.58;;;;;;;7.41;100.00;99923.18;1699969;84;21018;-61
2022/03/30 03:35:07;;;;;;;81.65;38.05;;;;;;;7.38;100.00;99924.59;1699711;84;21101;-61
2022/03/30 03:37:40;;;;;;;79.67;39.18;;;;;;;7.38;100.00;99916.06;1699629;84;21089;-61
2022/03/30 03:40:10;;;;;;;79.77;37.25;;;;;;;7.42;100.00;99911.20;1699960;84;21061;-61
2022/03/30 03:42:38;;;;;;;83.80;38.05;;;;;;;7.38;100.00;99907.95;1699834;84;21074;-61
2022/03/30 03:45:07;;;;;;;83.12;37.98;;;;;;;7.41;100.00;99903.15;1699912;83;21078;-61
2022/03/30 03:47:36;;;;;;;77.32;37.20;;;;;;;7.46;100.00;99896.55;1699617;84;21083;-61
2022/03/30 03:50:04;;;;;;;84.03;37.80;;;;;;;7.47;100.00;99889.27;1699667;84;21022;-62
2022/03/30 03:52:31;;;;;;;75.78;38.00;;;;;;;7.39;100.00;99892.96;1699897;84;21130;-61
2022/03/30 03:54:59;;;;;;;87.65;39.13;;;;;;;7.45;100.00;99889.32;1699565;84;21046;-61
2022/03/30 03:57:27;;;;;;;78.67;37.35;;;;;;;7.53;100.00;99889.02;1699903;84;21047;-61
2022/03/30 03:59:55;;;;;;;87.65;39.38;;;;;;;7.55;100.00;99883.38;1699724;84;21073;-61
2022/03/30 04:02:22;;;;;;;90.45;39.40;;;;;;;7.59;100.00;99886.20;1699528;84;21077;-62
2022/03/30 04:04:50;;;;;;;86.95;38.33;;;;;;;7.60;100.00;99893.83;1699743;84;21058;-62
2022/03/30 04:07:17;;;;;;;83.55;38.88;;;;;;;7.60;100.00;99895.11;1696941;84;20995;-62
2022/03/30 04:09:45;;;;;;;84.00;39.15;;;;;;;7.60;100.00;99898.95;1661808;86;21512;-62
2022/03/30 04:12:12;;;;;;;90.32;40.73;;;;;;;7.54;100.00;99903.47;1691177;85;21105;-62
2022/03/30 04:14:40;;;;;;;92.78;40.90;;;;;;;7.54;100.00;99906.89;1661576;86;21071;-62
2022/03/30 04:17:07;;;;;;;86.78;40.80;;;;;;;7.65;100.00;99906.89;1691085;85;21085;-62
2022/03/30 04:19:35;;;;;;;95.75;41.00;;;;;;;7.66;100.00;99905.98;1661737;86;21039;-62
2022/03/30 04:22:05;;;;;;;92.55;42.88;;;;;;;7.62;100.00;99907.83;1691037;85;21049;-62
2022/03/30 04:24:33;;;;;;;92.22;41.98;;;;;;;7.61;100.00;99908.73;1661814;86;21078;-62
2022/03/30 04:27:00;;;;;;;90.77;42.60;;;;;;;7.61;100.00;99906.17;1691121;85;21499;-62
2022/03/30 04:29:27;;;;;;;98.17;44.27;;;;;;;7.61;100.00;99907.00;1661890;86;21066;-62
2022/03/30 04:31:54;;;;;;;103.70;45.43;;;;;;;7.65;100.00;99903.05;1690798;85;21554;-62
2022/03/30 04:34:21;;;;;;;97.90;44.73;;;;;;;7.58;100.00;99916.53;1661913;86;21027;-62
2022/03/30 04:36:50;;;;;;;92.25;44.33;;;;;;;7.67;100.00;99908.48;1690918;85;21546;-62
2022/03/30 04:39:18;;;;;;;101.25;44.77;;;;;;;7.78;100.00;99905.46;1661711;86;21528;-62
2022/03/30 04:41:47;;;;;;;99.85;44.75;;;;;;;7.77;100.00;99915.34;1691033;85;21558;-62
2022/03/30 04:44:14;;;;;;;100.40;46.10;;;;;;;7.75;100.00;99901.30;1661623;86;21067;-62
2022/03/30 04:46:43;;;;;;;91.57;42.95;;;;;;;7.85;100.00;99904.31;1691122;85;21088;-62
2022/03/30 04:49:10;;;;;;;89.50;41.63;;;;;;;7.87;100.00;99895.26;1662090;86;21032;-62
2022/03/30 04:51:39;;;;;;;88.50;41.25;;;;;;;7.89;100.00;99905.03;1690961;85;21160;-63
2022/03/30 04:54:07;;;;;;;88.20;40.80;;;;;;;7.94;100.00;99904.36;1661965;86;21059;-62
2022/03/30 04:56:36;;;;;;;83.65;40.73;;;;;;;7.93;100.00;99910.41;1690727;85;21046;-62
2022/03/30 04:59:03;;;;;;;83.35;38.17;;;;;;;7.97;100.00;99914.05;1661895;86;21079;-62
2022/03/30 05:01:32;;;;;;;81.53;39.05;;;;;;;8.00;100.00;99911.79;1690800;85;21573;-62
2022/03/30 05:04:00;;;;;;;85.30;40.85;;;;;;;8.05;100.00;99916.70;1660079;85;21103;-62
2022/03/30 05:06:27;;;;;;;83.42;40.83;;;;;;;7.98;100.00;99911.84;1682423;85;21035;-63
2022/03/30 05:08:55;;;;;;;86.90;42.30;;;;;;;8.14;100.00;99909.91;1689480;85;21011;-62
2022/03/30 05:11:23;;;;;;;92.00;42.08;;;;;;;8.23;100.00;99919.75;1672125;86;21087;-62
2022/03/30 05:13:50;;;;;;;87.05;41.83;;;;;;;8.07;100.00;99920.89;1667443;86;21066;-63
2022/03/30 05:16:17;;;;;;;85.42;42.45;;;;;;;8.06;100.00;99926.08;1667373;86;21106;-62
2022/03/30 05:18:45;;;;;;;87.25;42.23;;;;;;;8.12;100.00;99929.66;1667616;86;21063;-62
2022/03/30 05:21:13;;;;;;;83.27;39.75;;;;;;;8.22;100.00;99937.33;1667308;86;21114;-62
2022/03/30 05:23:41;;;;;;;91.30;42.85;;;;;;;8.16;100.00;99933.30;1667547;86;21058;-63
2022/03/30 05:26:10;;;;;;;81.37;41.08;;;;;;;8.20;100.00;99942.52;1667362;86;21016;-62
2022/03/30 05:28:40;;;;;;;82.78;40.45;;;;;;;8.27;100.00;99937.12;1667447;86;21071;-62
2022/03/30 05:31:09;;;;;;;86.82;41.68;;;;;;;8.33;100.00;99930.44;1667710;86;21207;-63
2022/03/30 05:33:36;;;;;;;81.92;40.80;;;;;;;8.37;100.00;99936.67;1667465;86;21086;-63
2022/03/30 05:36:06;;;;;;;84.83;40.28;;;;;;;8.51;100.00;99936.53;1667532;86;21063;-62
2022/03/30 05:38:34;;;;;;;79.32;39.88;;;;;;;8.61;100.00;99935.21;1667566;85;21508;-63
2022/03/30 05:41:03;;;;;;;81.08;38.53;;;;;;;8.51;100.00;99928.38;1667634;85;21132;-62
2022/03/30 05:43:31;;;;;;;77.70;38.88;;;;;;;8.78;100.00;99930.16;1667097;86;21535;-63
2022/03/30 05:45:58;;;;;;;80.50;38.98;;;;;;;8.99;100.00;99928.78;1666749;85;21116;-63
2022/03/30 05:48:26;;;;;;;72.12;38.02;;;;;;;9.06;100.00;99938.30;1666657;86;21559;-63
2022/03/30 05:50:55;;;;;;;79.27;39.55;;;;;;;9.26;100.00;99947.17;1666438;86;21077;-62
2022/03/30 05:53:22;;;;;;;74.70;39.88;;;;;;;9.48;100.00;99942.30;1641703;86;21629;-63
2022/03/30 05:55:50;;;;;;;77.62;39.00;;;;;;;9.68;100.00;99944.72;1666977;86;21118;-63
2022/03/30 05:58:18;;;;;;;77.27;39.08;;;;;;;9.64;100.00;99952.20;1666686;86;21099;-63
2022/03/30 06:00:46;;;;;;;73.72;38.98;;;;;;;9.57;100.00;99956.82;1666865;86;21130;-63
2022/03/30 06:03:14;;;;;;;74.45;39.10;;;;;;;9.64;100.00;99965.05;1666695;86;21098;-63
2022/03/30 06:05:43;;;;;;;77.95;39.95;;;;;;;9.67;100.00;99960.21;1662483;86;21031;-64
2022/03/30 06:08:10;;;;;;;73.67;37.25;;;;;;;9.69;100.00;99958.40;1677019;84;21031;-63
2022/03/30 06:10:38;;;;;;;76.97;38.00;;;;;;;9.69;100.00;99960.53;1661126;86;21553;-62
2022/03/30 06:13:06;;;;;;;77.42;39.65;;;;;;;9.77;100.00;99963.56;1663564;86;21063;-63
2022/03/30 06:15:38;;;;;;;74.92;37.38;;;;;;;9.73;100.00;99963.77;1675726;85;20967;-62
2022/03/30 06:18:11;;;;;;;105.85;40.45;;;;;;;9.93;100.00;99965.34;1671129;86;21012;-61
2022/03/30 06:20:40;;;;;;;168.22;44.00;;;;;;;10.02;100.00;99967.01;1685580;85;21009;-62
2022/03/30 06:23:08;;;;;;;119.40;42.05;;;;;;;9.92;100.00;99962.42;1682967;85;21008;-61
2022/03/30 06:25:36;;;;;;;90.53;39.03;;;;;;;9.87;100.00;99960.52;1682043;85;21092;-62
2022/03/30 06:28:04;;;;;;;80.32;38.02;;;;;;;10.08;100.00;99956.88;1664436;86;21536;-62
2022/03/30 06:30:32;;;;;;;69.25;34.88;;;;;;;10.26;100.00;99967.97;1675406;85;21066;-62
2022/03/30 06:33:00;;;;;;;73.42;37.75;;;;;;;10.26;100.00;99966.69;1667903;86;21004;-62
2022/03/30 06:35:28;;;;;;;67.65;36.28;;;;;;;10.19;100.00;99963.57;1689760;84;21133;-61
2022/03/30 06:37:56;;;;;;;69.07;35.55;;;;;;;10.56;100.00;99971.16;1689759;84;21056;-62
2022/03/30 06:40:23;;;;;;;76.30;35.05;;;;;;;10.96;100.00;99956.98;1689597;84;21068;-62
2022/03/30 06:42:53;;;;;;;63.42;34.70;;;;;;;11.17;100.00;99954.99;1689520;84;21064;-62
2022/03/30 06:45:20;;;;;;;63.63;34.63;;;;;;;11.26;100.00;99956.68;1689673;84;21541;-62
2022/03/30 06:47:47;;;;;;;60.85;33.85;;;;;;;11.47;100.00;99957.21;1689454;85;21076;-62
2022/03/30 06:50:17;;;;;;;62.17;34.83;;;;;;;11.50;100.00;99944.98;1689715;84;21548;-62
2022/03/30 06:52:44;;;;;;;65.40;34.75;;;;;;;11.86;100.00;99946.81;1689386;85;21599;-62
2022/03/30 06:55:12;;;;;;;65.47;34.15;;;;;;;11.98;100.00;99939.23;1689527;84;21096;-63
2022/03/30 06:57:39;;;;;;;60.15;33.05;;;;;;;12.11;100.00;99944.95;1689743;84;21049;-62
2022/03/30 07:00:08;;;;;;;59.50;32.83;;;;;;;12.33;100.00;99953.53;1689524;84;21108;-63
2022/03/30 07:02:35;;;;;;;63.15;32.50;;;;;;;12.09;100.00;99966.14;1689665;84;21020;-62
2022/03/30 07:05:03;;;;;;;60.48;33.02;;;;;;;12.26;100.00;99958.69;1689465;84;21556;-62
2022/03/30 07:10:17;;;;;;;57.75;32.13;;;;;;;12.32;100.00;99950.10;1686946;85;21037;-62
2022/03/30 07:12:50;;;;;;;51.05;31.80;;;;;;;12.38;100.00;99945.86;1686823;85;21588;-62
2022/03/30 07:15:20;;;;;;;55.55;31.17;;;;;;;12.47;100.00;99944.49;1687046;84;21045;-62
2022/03/30 07:17:55;;;;;;;54.13;31.30;;;;;;;12.63;100.00;99947.79;1686847;84;21061;-62
2022/03/30 07:20:26;;;;;;;59.48;31.00;;;;;;;12.63;100.00;99950.81;1687010;84;21092;-62
2022/03/30 07:22:57;;;;;;;55.85;31.70;;;;;;;12.81;100.00;99951.43;1686460;84;21108;-62
2022/03/30 07:25:25;;;;;;;55.38;30.77;;;;;;;13.07;100.00;99953.67;1686805;85;21057;-62
2022/03/30 07:27:58;;;;;;;58.65;30.17;;;;;;;13.17;100.00;99957.33;1661973;85;21069;-62
2022/03/30 07:30:26;;;;;;;51.58;29.77;;;;;;;13.07;100.00;99956.26;1686926;84;21013;-62
2022/03/30 07:32:56;;;;;;;53.73;29.40;;;;;;;13.07;100.00;99956.26;1686899;85;21060;-63
2022/03/30 07:35:33;;;;;;;55.78;29.87;;;;;;;13.43;100.00;99956.16;1686897;84;21021;-62
2022/03/30 07:38:01;;;;;;;57.20;30.10;;;;;;;13.69;100.00;99953.64;1687109;84;21049;-62
2022/03/30 07:40:29;;;;;;;49.38;29.07;;;;;;;13.59;100.00;99950.35;1686800;85;21596;-62
2022/03/30 07:42:58;;;;;;;49.70;27.87;;;;;;;13.94;100.00;99953.65;1687040;84;21044;-62
2022/03/30 07:45:26;;;;;;;52.85;28.12;;;;;;;13.95;100.00;99948.00;1686947;85;21049;-62
2022/03/30 07:47:54;;;;;;;47.17;27.52;;;;;;;14.10;100.00;99949.56;1686802;85;21116;-62
2022/03/30 07:50:22;;;;;;;45.12;28.25;;;;;;;14.28;100.00;99942.31;1686957;84;21069;-62
2022/03/30 07:52:50;;;;;;;47.35;26.42;;;;;;;14.21;100.00;99941.91;1686634;85;21115;-62
2022/03/30 07:55:19;;;;;;;49.85;27.77;;;;;;;14.22;100.00;99941.44;1686609;84;21073;-62
2022/03/30 07:57:47;;;;;;;46.95;26.45;;;;;;;13.99;100.00;99936.52;1686766;84;21065;-62
2022/03/30 08:00:17;;;;;;;42.33;26.27;;;;;;;13.95;100.00;99933.33;1686998;84;21549;-63
2022/03/30 08:02:46;;;;;;;44.70;26.10;;;;;;;14.09;100.00;99932.40;1686909;84;21060;-62
2022/03/30 08:05:14;;;;;;;42.90;25.72;;;;;;;14.53;100.00;99935.44;1686779;84;21080;-62
2022/03/30 08:07:45;;;;;;;42.60;26.42;;;;;;;14.66;100.00;99936.72;1686930;85;21395;-62
2022/03/30 08:10:14;;;;;;;38.95;24.12;;;;;;;14.98;100.00;99924.07;1687827;84;21052;-61
2022/03/30 08:12:42;;;;;;;40.23;23.47;;;;;;;15.07;100.00;99926.02;1689676;84;21548;-62
2022/03/30 08:15:12;;;;;;;45.55;25.25;;;;;;;15.38;98.47;99922.48;1689623;84;21096;-62
2022/03/30 08:17:42;;;;;;;43.60;23.77;;;;;;;15.60;96.69;99917.83;1688918;84;21072;-62
2022/03/30 08:22:25;;;;;;;39.85;24.40;;;;;;;15.80;93.08;99922.38;1689669;84;21044;-61
2022/03/30 08:22:41;;;;;;;45.23;24.23;;;;;;;15.54;93.83;99919.59;1689753;84;21061;-62
2022/03/30 08:25:10;;;;;;;42.65;22.95;;;;;;;15.67;94.84;99915.59;1689466;85;21068;-62
2022/03/30 08:27:37;;;;;;;42.23;22.05;;;;;;;15.87;93.27;99907.16;1689784;85;21024;-62
2022/03/30 08:30:08;;;;;;;35.48;21.55;;;;;;;16.19;90.91;99913.80;1689944;84;21138;-61
2022/03/30 08:32:35;;;;;;;42.25;23.85;;;;;;;16.28;89.19;99911.42;1689673;84;21084;-61
2022/03/30 08:35:06;;;;;;;32.55;21.15;;;;;;;16.58;89.33;99910.80;1689663;85;21385;-62
2022/03/30 08:37:33;;;;;;;36.42;21.93;;;;;;;16.67;87.09;99905.38;1689659;84;21017;-62
2022/03/30 08:40:01;;;;;;;33.00;19.75;;;;;;;16.81;85.45;99905.95;1689453;84;21061;-62
2022/03/30 08:42:30;;;;;;;35.73;21.23;;;;;;;16.84;83.08;99900.97;1689565;85;21055;-62
2022/03/30 08:45:01;;;;;;;33.25;20.10;;;;;;;16.97;82.83;99897.75;1689756;85;21053;-62
2022/03/30 08:47:29;;;;;;;41.70;21.25;;;;;;;17.02;81.20;99895.59;1689392;84;21092;-62
2022/03/30 08:49:56;;;;;;;37.58;20.70;;;;;;;16.77;80.84;99886.32;1689642;84;21065;-62
2022/03/30 08:52:23;;;;;;;32.42;20.17;;;;;;;16.88;81.78;99880.28;1689420;84;21248;-62
2022/03/30 08:54:51;;;;;;;35.38;19.75;;;;;;;17.18;80.03;99878.27;1689352;85;21060;-62
2022/03/30 08:57:20;;;;;;;33.73;19.87;;;;;;;17.51;79.69;99877.73;1689350;85;21089;-62
2022/03/30 09:00:10;;;;;;;32.20;19.05;;;;;;;17.69;78.45;99880.58;1689964;84;21512;-62
2022/03/30 09:02:41;;;;;;;34.53;18.92;;;;;;;17.75;75.20;99873.56;1689735;84;21056;-62
2022/03/30 09:05:21;;;;;;;34.38;18.42;;;;;;;17.50;74.86;99879.16;1689659;84;21080;-62
2022/03/30 09:07:58;;;;;;;34.25;18.52;;;;;;;17.35;74.36;99871.67;1689648;85;21056;-61
2022/03/30 09:10:29;;;;;;;27.50;17.52;;;;;;;17.43;74.87;99870.56;1689253;85;21628;-62
2022/03/30 09:12:59;;;;;;;32.08;18.25;;;;;;;17.52;73.09;99870.78;1689632;84;21037;-62
2022/03/30 09:15:26;;;;;;;35.92;18.35;;;;;;;17.41;73.23;99869.86;1689457;85;21033;-62
2022/03/30 09:18:01;;;;;;;31.33;18.48;;;;;;;17.26;73.10;99862.52;1689667;85;21092;-62
2022/03/30 09:20:29;;;;;;;25.95;16.67;;;;;;;17.32;74.54;99870.64;1689692;84;21536;-62
2022/03/30 09:22:59;;;;;;;31.45;18.27;;;;;;;17.31;72.83;99867.67;1689664;84;21029;-62
2022/03/30 09:25:30;;;;;;;31.57;18.00;;;;;;;17.27;72.60;99872.78;1689609;84;21092;-62
2022/03/30 09:27:59;;;;;;;31.75;17.73;;;;;;;17.25;72.13;99866.88;1689808;85;21053;-62
2022/03/30 09:30:28;;;;;;;30.40;16.87;;;;;;;17.33;72.46;99868.38;1689756;84;21031;-62
2022/03/30 09:32:58;;;;;;;36.13;17.45;;;;;;;17.47;72.61;99864.63;1689829;84;21596;-62
2022/03/30 09:35:38;;;;;;;31.07;18.00;;;;;;;17.60;72.26;99860.06;1689708;84;21085;-62
2022/03/30 09:38:11;;;;;;;31.00;17.95;;;;;;;17.70;70.69;99863.17;1689810;84;21108;-62
2022/03/30 09:40:51;;;;;;;28.83;16.80;;;;;;;17.54;70.66;99854.56;1689720;84;21041;-62
2022/03/30 09:43:28;;;;;;;31.07;17.23;;;;;;;17.60;71.63;99848.35;1691459;83;21103;-62
2022/03/30 09:46:09;;;;;;;29.32;17.42;;;;;;;17.74;69.33;99860.66;1694428;83;20984;-62
2022/03/30 09:48:50;;;;;;;30.27;17.17;;;;;;;17.86;69.31;99856.23;1680193;85;20996;-62
2022/03/30 09:51:19;;;;;;;28.40;16.93;;;;;;;17.92;67.70;99860.43;1681572;85;21537;-62
2022/03/30 09:53:49;;;;;;;29.20;16.90;;;;;;;17.94;67.63;99860.31;1681715;85;21001;-62
2022/03/30 09:56:24;;;;;;;32.03;16.20;;;;;;;18.07;67.92;99849.20;1680421;85;21089;-62
2022/03/30 09:59:05;;;;;;;29.95;16.05;;;;;;;18.21;67.02;99844.11;1680500;85;21132;-62
2022/03/30 10:01:34;;;;;;;29.70;16.12;;;;;;;18.29;65.97;99835.14;1680775;85;21085;-62
2022/03/30 10:04:04;;;;;;;32.65;16.60;;;;;;;18.55;66.60;99835.47;1680520;85;21089;-62
2022/03/30 10:06:40;;;;;;;29.00;16.62;;;;;;;18.70;64.21;99835.88;1680858;85;21533;-62
2022/03/30 10:09:08;;;;;;;26.80;16.23;;;;;;;18.71;63.56;99839.30;1680521;85;21084;-63
2022/03/30 10:11:35;;;;;;;29.23;16.07;;;;;;;18.69;63.78;99839.92;1691126;84;21559;-62
2022/03/30 10:14:05;;;;;;;28.77;16.17;;;;;;;18.92;63.53;99840.52;1696017;84;21107;-62
2022/03/30 10:16:34;;;;;;;25.82;16.15;;;;;;;19.06;62.04;99837.49;1696090;84;21095;-62
2022/03/30 10:19:01;;;;;;;28.10;16.27;;;;;;;18.95;60.77;99836.31;1696374;84;21052;-63
2022/03/30 10:21:44;;;;;;;23.75;16.25;;;;;;;19.10;62.21;99834.95;1696186;84;21508;-63
2022/03/30 10:24:32;;;;;;;27.20;16.15;;;;;;;19.20;62.25;99834.91;1695854;84;21113;-62
2022/03/30 10:27:18;;;;;;;27.73;16.42;;;;;;;19.21;60.25;99828.74;1696338;84;21127;-63
2022/03/30 10:29:54;;;;;;;24.15;15.45;;;;;;;19.45;60.10;99828.28;1696397;84;21579;-63
2022/03/30 10:32:24;;;;;;;26.80;15.98;;;;;;;19.44;59.93;99825.31;1696319;84;21560;-63
2022/03/30 10:35:03;;;;;;;32.48;16.57;;;;;;;19.51;59.64;99811.23;1696191;84;21051;-62
2022/03/30 10:37:36;;;;;;;25.48;15.80;;;;;;;19.56;59.93;99810.31;1696431;84;21580;-63
2022/03/30 10:40:11;;;;;;;28.27;16.23;;;;;;;19.72;58.55;99812.35;1696255;84;21076;-62
2022/03/30 10:42:50;;;;;;;30.10;15.72;;;;;;;19.64;57.90;99809.61;1688429;84;21003;-62
2022/03/30 10:45:46;;;;;;;25.05;15.68;;;;;;;19.74;58.20;99794.75;1686626;84;20996;-62
2022/03/30 10:48:36;;;;;;;23.50;15.03;;;;;;;20.04;57.75;99802.78;1686910;85;21503;-63
2022/03/30 10:51:18;;;;;;;21.42;15.00;;;;;;;20.05;57.41;99792.66;1695275;84;21043;-63
2022/03/30 10:53:53;;;;;;;24.80;14.83;;;;;;;20.26;56.15;99787.18;1691413;84;21696;-62
2022/03/30 10:56:28;;;;;;;22.50;15.20;;;;;;;20.17;54.39;99785.44;1693202;84;21531;-62
2022/03/30 10:59:01;;;;;;;23.60;15.15;;;;;;;20.21;54.65;99785.48;1689587;84;21070;-62
2022/03/30 11:01:39;;;;;;;25.95;15.00;;;;;;;20.44;54.45;99779.36;1688930;84;21359;-62
2022/03/30 11:04:11;;;;;;;22.90;14.70;;;;;;;20.72;54.67;99774.90;1691321;84;21051;-63
2022/03/30 11:06:44;;;;;;;22.30;14.18;;;;;;;20.88;53.32;99774.17;1691521;84;21031;-64
2022/03/30 11:09:30;;;;;;;24.63;14.15;;;;;;;20.84;53.89;99771.53;1689968;84;21071;-62
2022/03/30 11:12:12;;;;;;;26.42;14.60;;;;;;;21.07;53.38;99760.59;1691538;84;21058;-63
2022/03/30 11:14:43;;;;;;;30.60;15.18;;;;;;;21.10;50.55;99757.16;1688490;84;21023;-62
2022/03/30 11:17:15;;;;;;;23.73;14.43;;;;;;;21.13;50.65;99756.05;1690675;84;21031;-63
2022/03/30 11:19:57;;;;;;;22.77;14.15;;;;;;;21.35;51.36;99750.28;1686569;84;21107;-62
2022/03/30 11:22:33;;;;;;;24.70;14.43;;;;;;;21.17;51.38;99742.50;1693324;84;21031;-63
2022/03/30 11:25:22;;;;;;;24.92;14.30;;;;;;;21.41;51.24;99749.66;1691684;84;21027;-63
2022/03/30 11:28:08;;;;;;;21.50;13.45;;;;;;;21.50;49.99;99738.76;1691320;84;21007;-63
2022/03/30 11:30:43;;;;;;;24.87;14.45;;;;;;;21.84;49.61;99728.73;1656740;84;30239;-65
2022/03/30 11:33:22;;;;;;;24.72;13.72;;;;;;;21.91;48.00;99734.15;1690934;84;21060;-63
2022/03/30 11:35:52;;;;;;;23.50;13.98;;;;;;;21.86;46.91;99724.16;1693623;84;21011;-62
2022/03/30 11:38:27;;;;;;;28.67;14.38;;;;;;;21.95;46.72;99716.63;1689797;84;21011;-62